Blue Hill, ME (04614)

2:03 AM EST on December 29, 2014 (GMT -0500)
APRSWXNET Sedgwick Ridge ME US | Change Station
CLOSE
Current Station
Personal Weather Station
Location: Sedgwick, ME
Elevation: 416 ft
Nearby Weather Stations

Elev 416 ft 44.36 °N, 68.61 °W | Updated 35 minutes ago

Mostly Cloudy
Mostly Cloudy
32 °F
Feels Like 24 °F
N
10
Wind Variable Wind from WNW
Gusts 17.0 mph

Today
High -- | Low -- °F
--% Chance of Precip.
Yesterday
High -- | Low -- °F
Precip. -- in
7:10 AM 4:03 PM
First Quarter, 56% visible
Pressure 29.94 in
Visibility 10.0 miles
Clouds Mostly Cloudy 5000 ft
Windchill 24 °F
Dew Point 22 °F
Humidity 66%
Rainfall 0.62 in
Snow Depth Not available.
UV 0 out of 12
Pollen .10 out of 12
Air Quality Not available.
Flu Activity Not available.
METAR KBHB 290655Z AUTO 27004KT 10SM BKN050 01/M04 A2994 RMK AO1

More Conditions Fewer Conditions

Pressure 29.94 in
Visibility 10.0 miles
Clouds Mostly Cloudy 5000 ft
Windchill 24 °F
Dew Point 22 °F
Humidity 66%
Rainfall 0.62 in
Snow Depth Not available.
UV 0 out of 12
Pollen .10 out of 12
Air Quality Not available.
Flu Activity Not available.
METAR KBHB 290655Z AUTO 27004KT 10SM BKN050 01/M04 A2994 RMK AO1

More Conditions Fewer Conditions

10-Day Weather Forecast

Almanac

Astronomy

Dec. 29, 2014 Rise Set
Actual Time
Civil Twilight
Nautical Twilight
Astronomical Twilight
Moon
Length of Visible Light
Length of Day
Tomorrow will be .
, % of the Moon is Illuminated

Today's Extremes

State Highs State Lows

Community

WunderPhotos

Upload Photos

1,781,547 photos uploaded!

WunderBlogs® & News

Nearby

Air Quality

  Air Quality AQ Index Pollutant
Not available.

Snow Depth

Station Depth Elevation

Earthquake Activity

City Distance Mag. Time & Date
Minimum magnitude displayed is 2.5.

Coastal Water Temperatures

Place Temperature

Nearby Weather Stations